Millbury, Ohio
Current Conditions -  °F | °C
As of 1:53 PM on Sunday 23 Nov 2014 (Local Time) from KTDZ Reporting Station
Clear Clear  
Wind Chill: 60°   Ceiling: Unl
Heat Index: 60°   Visibility: 10mi
Dew Point: 47°   Wind: 12mph
Humidity: 62%   Direction: 150°SSE
Pressure: 29.77"   Gusts: NA
Location:  41.57°N, 83.42°W
Report Text: KTDZ 231853Z AUTO 15010KT 10SM CLR 16/08 A2977 RMK AO2 SLP082 T01560083 TSNO
Loading
Personal Weather Stations






























Interactive Weather Map New forecast layout! Learn more

10-Day Weather Forecast

Advertisements
Track Severe Weather on mobile